sensor_id;sensor_type;location;lat;lon;timestamp;pressure;altitude;pressure_sealevel;temperature;humidity
33286;BME280;19656;50.096;20.014;2023-04-03T00:04:56;99315.07;;;5.53;66.44
33286;BME280;19656;50.096;20.014;2023-04-03T00:10:00;99318.43;;;5.47;66.64
33286;BME280;19656;50.096;20.014;2023-04-03T00:15:04;99318.26;;;5.43;67.02
33286;BME280;19656;50.096;20.014;2023-04-03T00:20:08;99319.48;;;5.38;67.07
33286;BME280;19656;50.096;20.014;2023-04-03T00:25:12;99319.17;;;5.32;66.95
33286;BME280;19656;50.096;20.014;2023-04-03T00:30:24;99317.33;;;5.25;66.68
33286;BME280;19656;50.096;20.014;2023-04-03T00:35:29;99320.39;;;5.18;66.81
33286;BME280;19656;50.096;20.014;2023-04-03T00:40:38;99323.74;;;5.17;66.87
33286;BME280;19656;50.096;20.014;2023-04-03T00:45:47;99330.76;;;5.18;66.81
33286;BME280;19656;50.096;20.014;2023-04-03T00:50:51;99332.00;;;5.13;66.84
33286;BME280;19656;50.096;20.014;2023-04-03T00:55:55;99334.30;;;5.02;66.73
33286;BME280;19656;50.096;20.014;2023-04-03T01:01:00;99337.67;;;4.91;66.84
33286;BME280;19656;50.096;20.014;2023-04-03T01:06:13;99338.92;;;4.80;67.20
33286;BME280;19656;50.096;20.014;2023-04-03T01:11:20;99340.43;;;4.72;67.40
33286;BME280;19656;50.096;20.014;2023-04-03T01:16:24;99343.67;;;4.64;67.68
33286;BME280;19656;50.096;20.014;2023-04-03T01:27:07;99348.41;;;4.60;67.76
33286;BME280;19656;50.096;20.014;2023-04-03T01:32:12;99352.05;;;4.61;67.96
33286;BME280;19656;50.096;20.014;2023-04-03T01:37:16;99355.67;;;4.68;68.11
33286;BME280;19656;50.096;20.014;2023-04-03T01:42:21;99356.17;;;4.74;67.93
33286;BME280;19656;50.096;20.014;2023-04-03T01:47:25;99358.15;;;4.73;67.92
33286;BME280;19656;50.096;20.014;2023-04-03T01:52:28;99365.92;;;4.72;67.90
33286;BME280;19656;50.096;20.014;2023-04-03T01:57:32;99370.73;;;4.70;67.91
33286;BME280;19656;50.096;20.014;2023-04-03T02:02:36;99367.38;;;4.65;68.02
33286;BME280;19656;50.096;20.014;2023-04-03T02:07:39;99369.68;;;4.64;68.05
33286;BME280;19656;50.096;20.014;2023-04-03T02:12:43;99370.29;;;4.62;68.23
33286;BME280;19656;50.096;20.014;2023-04-03T02:17:46;99374.70;;;4.61;68.17
33286;BME280;19656;50.096;20.014;2023-04-03T02:22:50;99375.73;;;4.56;68.33
33286;BME280;19656;50.096;20.014;2023-04-03T02:27:53;99374.96;;;4.54;68.15
33286;BME280;19656;50.096;20.014;2023-04-03T02:32:56;99379.71;;;4.52;68.32
33286;BME280;19656;50.096;20.014;2023-04-03T02:38:00;99380.02;;;4.60;68.33
33286;BME280;19656;50.096;20.014;2023-04-03T02:43:04;99381.98;;;4.64;68.09
33286;BME280;19656;50.096;20.014;2023-04-03T02:48:10;99388.48;;;4.59;68.14
33286;BME280;19656;50.096;20.014;2023-04-03T02:53:14;99392.14;;;4.49;68.01
33286;BME280;19656;50.096;20.014;2023-04-03T02:58:18;99399.69;;;4.43;68.30
33286;BME280;19656;50.096;20.014;2023-04-03T03:03:22;99402.17;;;4.37;68.46
33286;BME280;19656;50.096;20.014;2023-04-03T03:08:26;99402.81;;;4.33;68.42
33286;BME280;19656;50.096;20.014;2023-04-03T03:13:30;99401.86;;;4.41;69.88
33286;BME280;19656;50.096;20.014;2023-04-03T03:18:34;99401.23;;;4.45;68.52
33286;BME280;19656;50.096;20.014;2023-04-03T03:23:38;99404.55;;;4.45;68.70
33286;BME280;19656;50.096;20.014;2023-04-03T03:28:41;99400.98;;;4.47;68.33
33286;BME280;19656;50.096;20.014;2023-04-03T03:33:46;99405.36;;;4.47;68.27
33286;BME280;19656;50.096;20.014;2023-04-03T03:38:50;99408.60;;;4.45;68.14
33286;BME280;19656;50.096;20.014;2023-04-03T03:43:53;99410.79;;;4.42;68.03
33286;BME280;19656;50.096;20.014;2023-04-03T03:48:57;99414.77;;;4.33;67.92
33286;BME280;19656;50.096;20.014;2023-04-03T03:54:01;99423.38;;;4.33;68.13
33286;BME280;19656;50.096;20.014;2023-04-03T03:59:04;99427.71;;;4.29;68.05
33286;BME280;19656;50.096;20.014;2023-04-03T04:04:08;99430.44;;;4.25;68.36
33286;BME280;19656;50.096;20.014;2023-04-03T04:09:12;99430.36;;;4.29;68.26
33286;BME280;19656;50.096;20.014;2023-04-03T04:14:16;99436.08;;;4.20;67.85
33286;BME280;19656;50.096;20.014;2023-04-03T04:19:35;99442.98;;;4.05;67.97
33286;BME280;19656;50.096;20.014;2023-04-03T04:24:39;99444.71;;;4.00;68.46
33286;BME280;19656;50.096;20.014;2023-04-03T04:29:43;99449.73;;;4.09;68.81
33286;BME280;19656;50.096;20.014;2023-04-03T04:34:46;99448.84;;;4.21;68.15
33286;BME280;19656;50.096;20.014;2023-04-03T04:39:50;99456.04;;;4.21;67.76
33286;BME280;19656;50.096;20.014;2023-04-03T04:44:54;99466.40;;;4.16;67.39
33286;BME280;19656;50.096;20.014;2023-04-03T04:49:57;99471.68;;;4.09;67.64
33286;BME280;19656;50.096;20.014;2023-04-03T04:55:01;99469.98;;;4.01;67.64
33286;BME280;19656;50.096;20.014;2023-04-03T05:00:05;99473.31;;;3.88;67.74
33286;BME280;19656;50.096;20.014;2023-04-03T05:05:09;99475.90;;;3.83;67.88
33286;BME280;19656;50.096;20.014;2023-04-03T05:10:13;99485.38;;;3.84;68.14
33286;BME280;19656;50.096;20.014;2023-04-03T05:15:17;99490.29;;;3.84;68.13
33286;BME280;19656;50.096;20.014;2023-04-03T05:20:21;99497.05;;;3.87;68.27
33286;BME280;19656;50.096;20.014;2023-04-03T05:25:25;99503.30;;;3.96;68.18
33286;BME280;19656;50.096;20.014;2023-04-03T05:30:30;99500.88;;;4.07;68.08
33286;BME280;19656;50.096;20.014;2023-04-03T05:35:36;99505.58;;;4.02;67.45
33286;BME280;19656;50.096;20.014;2023-04-03T05:40:43;99513.68;;;4.01;67.45
33286;BME280;19656;50.096;20.014;2023-04-03T05:45:47;99515.27;;;4.07;67.39
33286;BME280;19656;50.096;20.014;2023-04-03T05:50:52;99516.27;;;4.09;66.93
33286;BME280;19656;50.096;20.014;2023-04-03T05:56:01;99521.98;;;4.06;66.89
33286;BME280;19656;50.096;20.014;2023-04-03T06:01:06;99524.84;;;4.03;66.85
33286;BME280;19656;50.096;20.014;2023-04-03T06:06:13;99527.36;;;4.02;66.58
33286;BME280;19656;50.096;20.014;2023-04-03T06:11:17;99533.42;;;3.92;66.23
33286;BME280;19656;50.096;20.014;2023-04-03T06:16:20;99536.71;;;3.87;66.31
33286;BME280;19656;50.096;20.014;2023-04-03T06:21:24;99538.21;;;3.83;66.03
33286;BME280;19656;50.096;20.014;2023-04-03T06:26:27;99542.63;;;3.82;66.09
33286;BME280;19656;50.096;20.014;2023-04-03T06:31:31;99543.93;;;3.85;65.60
33286;BME280;19656;50.096;20.014;2023-04-03T06:36:35;99552.16;;;3.93;65.42
33286;BME280;19656;50.096;20.014;2023-04-03T06:41:38;99561.19;;;3.97;65.07
33286;BME280;19656;50.096;20.014;2023-04-03T06:46:43;99563.27;;;3.98;64.47
33286;BME280;19656;50.096;20.014;2023-04-03T06:51:48;99564.02;;;4.02;63.88
33286;BME280;19656;50.096;20.014;2023-04-03T06:56:51;99567.34;;;4.03;63.97
33286;BME280;19656;50.096;20.014;2023-04-03T07:01:54;99572.40;;;4.05;64.05
33286;BME280;19656;50.096;20.014;2023-04-03T07:06:58;99572.91;;;4.05;63.99
33286;BME280;19656;50.096;20.014;2023-04-03T07:12:02;99572.05;;;4.11;64.04
33286;BME280;19656;50.096;20.014;2023-04-03T07:17:05;99578.55;;;4.18;64.06
33286;BME280;19656;50.096;20.014;2023-04-03T07:22:09;99582.48;;;4.21;63.46
33286;BME280;19656;50.096;20.014;2023-04-03T07:27:14;99583.09;;;4.24;62.34
33286;BME280;19656;50.096;20.014;2023-04-03T07:32:17;99593.27;;;4.37;62.70
33286;BME280;19656;50.096;20.014;2023-04-03T07:37:20;99599.69;;;4.53;62.56
33286;BME280;19656;50.096;20.014;2023-04-03T07:42:24;99607.37;;;4.61;62.26
33286;BME280;19656;50.096;20.014;2023-04-03T07:47:30;99615.15;;;4.71;61.83
33286;BME280;19656;50.096;20.014;2023-04-03T07:52:34;99617.23;;;4.72;61.26
33286;BME280;19656;50.096;20.014;2023-04-03T07:57:37;99614.89;;;4.74;60.27
33286;BME280;19656;50.096;20.014;2023-04-03T08:02:41;99618.70;;;4.82;60.99
33286;BME280;19656;50.096;20.014;2023-04-03T08:07:45;99620.68;;;4.92;60.59
33286;BME280;19656;50.096;20.014;2023-04-03T08:12:48;99623.10;;;5.00;60.36
33286;BME280;19656;50.096;20.014;2023-04-03T08:17:52;99624.48;;;5.01;59.21
33286;BME280;19656;50.096;20.014;2023-04-03T08:22:56;99623.64;;;5.05;59.23
33286;BME280;19656;50.096;20.014;2023-04-03T08:27:59;99627.05;;;5.08;59.43
33286;BME280;19656;50.096;20.014;2023-04-03T08:33:03;99632.84;;;5.10;59.29
33286;BME280;19656;50.096;20.014;2023-04-03T08:38:08;99642.00;;;5.09;58.87
33286;BME280;19656;50.096;20.014;2023-04-03T08:48:43;99651.06;;;5.06;58.99
33286;BME280;19656;50.096;20.014;2023-04-03T08:53:59;99656.14;;;5.13;59.18
33286;BME280;19656;50.096;20.014;2023-04-03T08:59:10;99659.52;;;5.23;58.11
33286;BME280;19656;50.096;20.014;2023-04-03T09:04:16;99655.86;;;5.22;57.83
33286;BME280;19656;50.096;20.014;2023-04-03T09:09:40;99667.99;;;5.10;57.48
33286;BME280;19656;50.096;20.014;2023-04-03T09:20:26;99675.58;;;4.97;57.84
33286;BME280;19656;50.096;20.014;2023-04-03T09:25:35;99682.85;;;4.95;57.94
33286;BME280;19656;50.096;20.014;2023-04-03T09:30:40;99688.59;;;4.91;58.37
33286;BME280;19656;50.096;20.014;2023-04-03T09:35:45;99695.66;;;4.90;58.08
33286;BME280;19656;50.096;20.014;2023-04-03T09:41:05;99698.95;;;4.86;57.54
33286;BME280;19656;50.096;20.014;2023-04-03T09:51:29;99712.39;;;4.82;56.84
33286;BME280;19656;50.096;20.014;2023-04-03T09:56:32;99714.28;;;4.71;56.79
33286;BME280;19656;50.096;20.014;2023-04-03T10:01:39;99719.23;;;4.70;57.22
33286;BME280;19656;50.096;20.014;2023-04-03T10:12:13;99725.33;;;4.92;57.04
33286;BME280;19656;50.096;20.014;2023-04-03T10:22:51;99723.80;;;5.02;56.06
33286;BME280;19656;50.096;20.014;2023-04-03T10:33:16;99727.45;;;4.91;56.63
33286;BME280;19656;50.096;20.014;2023-04-03T10:43:48;99735.95;;;5.08;56.70
33286;BME280;19656;50.096;20.014;2023-04-03T10:54:12;99731.27;;;5.18;55.86
33286;BME280;19656;50.096;20.014;2023-04-03T10:59:45;99732.45;;;5.19;55.38
33286;BME280;19656;50.096;20.014;2023-04-03T11:04:54;99736.13;;;5.19;55.20
33286;BME280;19656;50.096;20.014;2023-04-03T11:10:13;99734.21;;;5.25;55.44
33286;BME280;19656;50.096;20.014;2023-04-03T11:15:20;99729.63;;;5.44;55.14
33286;BME280;19656;50.096;20.014;2023-04-03T11:20:30;99728.52;;;5.80;55.20
33286;BME280;19656;50.096;20.014;2023-04-03T11:25:36;99723.83;;;6.06;54.08
33286;BME280;19656;50.096;20.014;2023-04-03T11:31:22;99722.00;;;6.08;53.58
33286;BME280;19656;50.096;20.014;2023-04-03T11:36:31;99719.69;;;6.20;53.41
33286;BME280;19656;50.096;20.014;2023-04-03T11:41:36;99721.58;;;6.32;53.14
33286;BME280;19656;50.096;20.014;2023-04-03T11:52:10;99717.72;;;6.57;51.93
33286;BME280;19656;50.096;20.014;2023-04-03T12:08:58;99709.33;;;6.80;49.20
33286;BME280;19656;50.096;20.014;2023-04-03T12:14:15;99709.48;;;7.14;49.03
33286;BME280;19656;50.096;20.014;2023-04-03T12:19:46;99704.86;;;7.56;47.44
33286;BME280;19656;50.096;20.014;2023-04-03T12:30:50;99710.17;;;7.69;45.96
33286;BME280;19656;50.096;20.014;2023-04-03T12:36:27;99701.67;;;7.70;46.24
33286;BME280;19656;50.096;20.014;2023-04-03T12:54:56;99703.20;;;7.72;45.29
33286;BME280;19656;50.096;20.014;2023-04-03T13:00:34;99707.77;;;7.54;45.49
33286;BME280;19656;50.096;20.014;2023-04-03T13:05:50;99714.23;;;7.43;45.21
33286;BME280;19656;50.096;20.014;2023-04-03T13:11:20;99714.17;;;7.30;45.77
33286;BME280;19656;50.096;20.014;2023-04-03T13:16:32;99714.02;;;7.39;45.66
33286;BME280;19656;50.096;20.014;2023-04-03T13:21:36;99709.60;;;7.44;45.48
33286;BME280;19656;50.096;20.014;2023-04-03T13:26:44;99702.85;;;7.40;45.01
33286;BME280;19656;50.096;20.014;2023-04-03T13:32:44;99699.34;;;7.40;44.17
33286;BME280;19656;50.096;20.014;2023-04-03T13:38:00;99697.25;;;7.39;43.69
33286;BME280;19656;50.096;20.014;2023-04-03T13:43:18;99693.98;;;7.41;44.28
33286;BME280;19656;50.096;20.014;2023-04-03T13:48:23;99694.80;;;7.43;44.35
33286;BME280;19656;50.096;20.014;2023-04-03T13:53:29;99700.63;;;7.47;44.09
33286;BME280;19656;50.096;20.014;2023-04-03T13:58:34;99700.07;;;7.44;43.97
33286;BME280;19656;50.096;20.014;2023-04-03T14:08:56;99699.74;;;7.20;44.23
33286;BME280;19656;50.096;20.014;2023-04-03T14:14:02;99696.90;;;7.20;45.10
33286;BME280;19656;50.096;20.014;2023-04-03T14:19:17;99695.87;;;7.28;45.33
33286;BME280;19656;50.096;20.014;2023-04-03T14:24:22;99695.76;;;7.27;44.90
33286;BME280;19656;50.096;20.014;2023-04-03T14:29:25;99692.85;;;7.25;44.46
33286;BME280;19656;50.096;20.014;2023-04-03T14:34:28;99692.51;;;7.19;45.04
33286;BME280;19656;50.096;20.014;2023-04-03T14:39:31;99686.14;;;7.20;45.20
33286;BME280;19656;50.096;20.014;2023-04-03T14:44:35;99685.61;;;7.20;45.10
33286;BME280;19656;50.096;20.014;2023-04-03T14:49:39;99681.38;;;7.25;44.67
33286;BME280;19656;50.096;20.014;2023-04-03T14:54:42;99682.33;;;7.28;44.48
33286;BME280;19656;50.096;20.014;2023-04-03T14:59:45;99680.94;;;7.27;44.02
33286;BME280;19656;50.096;20.014;2023-04-03T15:04:49;99684.90;;;7.29;43.52
33286;BME280;19656;50.096;20.014;2023-04-03T15:09:55;99679.35;;;7.27;43.39
33286;BME280;19656;50.096;20.014;2023-04-03T15:15:01;99683.06;;;7.27;43.29
33286;BME280;19656;50.096;20.014;2023-04-03T15:20:17;99684.50;;;7.17;42.82
33286;BME280;19656;50.096;20.014;2023-04-03T15:25:20;99683.19;;;7.09;42.70
33286;BME280;19656;50.096;20.014;2023-04-03T15:30:23;99679.92;;;7.07;42.79
33286;BME280;19656;50.096;20.014;2023-04-03T15:35:27;99679.05;;;7.07;42.83
33286;BME280;19656;50.096;20.014;2023-04-03T15:40:30;99678.27;;;7.00;42.81
33286;BME280;19656;50.096;20.014;2023-04-03T15:45:35;99678.98;;;7.00;43.41
33286;BME280;19656;50.096;20.014;2023-04-03T15:50:41;99680.33;;;6.96;42.39
33286;BME280;19656;50.096;20.014;2023-04-03T15:55:44;99684.70;;;6.97;42.21
33286;BME280;19656;50.096;20.014;2023-04-03T16:00:47;99686.33;;;7.01;41.90
33286;BME280;19656;50.096;20.014;2023-04-03T16:05:51;99680.66;;;7.02;42.02
33286;BME280;19656;50.096;20.014;2023-04-03T16:10:54;99684.75;;;6.96;41.84
33286;BME280;19656;50.096;20.014;2023-04-03T16:15:58;99681.97;;;7.00;41.75
33286;BME280;19656;50.096;20.014;2023-04-03T16:21:01;99676.91;;;7.02;42.05
33286;BME280;19656;50.096;20.014;2023-04-03T16:26:05;99678.63;;;6.99;41.78
33286;BME280;19656;50.096;20.014;2023-04-03T16:31:09;99684.55;;;6.82;41.07
33286;BME280;19656;50.096;20.014;2023-04-03T16:36:12;99683.75;;;6.65;41.64
33286;BME280;19656;50.096;20.014;2023-04-03T16:42:52;99683.79;;;6.54;42.27
33286;BME280;19656;50.096;20.014;2023-04-03T16:47:58;99687.28;;;6.45;42.10
33286;BME280;19656;50.096;20.014;2023-04-03T16:53:02;99692.73;;;6.35;42.42
33286;BME280;19656;50.096;20.014;2023-04-03T16:58:06;99693.39;;;6.26;42.17
33286;BME280;19656;50.096;20.014;2023-04-03T17:03:09;99702.80;;;6.18;42.61
33286;BME280;19656;50.096;20.014;2023-04-03T17:08:13;99703.17;;;6.13;42.31
33286;BME280;19656;50.096;20.014;2023-04-03T17:13:16;99706.84;;;6.03;42.91
33286;BME280;19656;50.096;20.014;2023-04-03T17:18:20;99705.77;;;5.92;43.70
33286;BME280;19656;50.096;20.014;2023-04-03T17:23:25;99711.65;;;5.84;43.62
33286;BME280;19656;50.096;20.014;2023-04-03T17:28:31;99715.95;;;5.76;44.21
33286;BME280;19656;50.096;20.014;2023-04-03T17:33:37;99723.48;;;5.66;44.37
33286;BME280;19656;50.096;20.014;2023-04-03T17:38:40;99728.14;;;5.58;44.65
33286;BME280;19656;50.096;20.014;2023-04-03T17:43:43;99725.79;;;5.48;44.99
33286;BME280;19656;50.096;20.014;2023-04-03T17:48:46;99730.92;;;5.41;45.45
33286;BME280;19656;50.096;20.014;2023-04-03T17:53:49;99731.69;;;5.33;45.98
33286;BME280;19656;50.096;20.014;2023-04-03T18:05:16;99748.06;;;5.39;49.26
33286;BME280;19656;50.096;20.014;2023-04-03T18:10:34;99750.25;;;5.37;46.48
33286;BME280;19656;50.096;20.014;2023-04-03T18:17:26;99759.05;;;5.24;46.63
33286;BME280;19656;50.096;20.014;2023-04-03T18:23:55;99757.42;;;5.13;46.75
33286;BME280;19656;50.096;20.014;2023-04-03T18:30:23;99761.19;;;5.04;46.76
33286;BME280;19656;50.096;20.014;2023-04-03T18:35:44;99763.89;;;5.02;48.21
33286;BME280;19656;50.096;20.014;2023-04-03T18:41:42;99763.61;;;5.18;49.71
33286;BME280;19656;50.096;20.014;2023-04-03T19:25:10;99761.67;;;4.67;49.21
33286;BME280;19656;50.096;20.014;2023-04-03T19:31:19;99762.41;;;4.66;49.33
33286;BME280;19656;50.096;20.014;2023-04-03T19:37:17;99761.27;;;4.68;49.44
33286;BME280;19656;50.096;20.014;2023-04-03T19:43:59;99756.84;;;4.70;49.54
33286;BME280;19656;50.096;20.014;2023-04-03T20:03:33;99760.17;;;4.90;50.43
33286;BME280;19656;50.096;20.014;2023-04-03T20:08:38;99759.86;;;4.89;49.86
33286;BME280;19656;50.096;20.014;2023-04-03T20:13:42;99763.17;;;4.84;49.92
33286;BME280;19656;50.096;20.014;2023-04-03T20:31:26;99758.56;;;4.78;49.65
33286;BME280;19656;50.096;20.014;2023-04-03T20:50:32;99768.46;;;4.76;49.48
33286;BME280;19656;50.096;20.014;2023-04-03T21:03:13;99768.64;;;4.77;49.84
33286;BME280;19656;50.096;20.014;2023-04-03T21:21:24;99780.27;;;4.69;50.79
33286;BME280;19656;50.096;20.014;2023-04-03T21:34:06;99781.71;;;4.67;51.35
33286;BME280;19656;50.096;20.014;2023-04-03T21:49:29;99785.71;;;4.68;51.20
33286;BME280;19656;50.096;20.014;2023-04-03T22:07:48;99766.39;;;4.68;50.38
33286;BME280;19656;50.096;20.014;2023-04-03T22:12:51;99756.10;;;4.65;50.28
33286;BME280;19656;50.096;20.014;2023-04-03T22:30:56;99725.20;;;4.64;50.87
33286;BME280;19656;50.096;20.014;2023-04-03T22:45:53;99704.71;;;4.74;50.77
33286;BME280;19656;50.096;20.014;2023-04-03T23:43:30;99649.45;;;4.19;52.01
33286;BME280;19656;50.096;20.014;2023-04-03T23:48:34;99644.34;;;4.13;51.89
